createdAt,value
2024-03-14T13:58:47.822Z,12.35
2024-03-14T14:01:21.239Z,12.39
2024-03-14T14:03:48.415Z,12.39
2024-03-14T14:06:18.194Z,12.44
2024-03-14T14:08:44.683Z,12.38
2024-03-14T14:11:14.140Z,12.38
2024-03-14T14:13:41.158Z,12.37
2024-03-14T14:16:07.562Z,12.31
2024-03-14T14:18:34.125Z,12.36
2024-03-14T14:21:00.987Z,12.31
2024-03-14T14:23:29.360Z,12.28
2024-03-14T14:25:58.661Z,12.27
2024-03-14T14:28:25.069Z,12.26
2024-03-14T14:30:52.613Z,12.28
2024-03-14T14:33:19.238Z,12.21
2024-03-14T14:35:46.931Z,12.20
2024-03-14T14:38:13.603Z,12.22
2024-03-14T14:40:49.107Z,12.18
2024-03-14T14:43:17.871Z,12.17
2024-03-14T14:45:44.439Z,12.24
2024-03-14T14:48:12.707Z,12.20
2024-03-14T14:50:40.810Z,12.21
2024-03-14T14:53:07.669Z,12.25
2024-03-14T14:55:34.336Z,12.30
2024-03-14T14:58:09.303Z,12.19
2024-03-14T15:00:35.853Z,12.21
2024-03-14T15:03:11.259Z,12.19
2024-03-14T15:05:38.439Z,12.22
2024-03-14T15:08:05.054Z,12.18
2024-03-14T15:10:31.622Z,12.16
2024-03-14T15:13:04.198Z,12.11
2024-03-14T15:15:32.423Z,12.07
2024-03-14T15:18:01.059Z,12.04
2024-03-14T15:20:28.091Z,12.05
2024-03-14T15:22:55.264Z,12.03
2024-03-14T15:25:25.976Z,12.00
2024-03-14T15:27:54.218Z,11.99
2024-03-14T15:30:23.972Z,11.97
2024-03-14T15:32:50.729Z,11.93
2024-03-14T15:35:18.536Z,11.93
2024-03-14T15:37:45.647Z,11.92
2024-03-14T15:40:15.418Z,11.89
2024-03-14T15:42:42.330Z,11.87
2024-03-14T15:45:17.620Z,11.86
2024-03-14T15:47:48.090Z,11.84
2024-03-14T15:50:17.866Z,11.81
2024-03-14T15:52:45.281Z,11.81
2024-03-14T15:55:11.968Z,11.80
2024-03-14T15:57:40.514Z,11.78
2024-03-14T16:00:09.577Z,11.80
2024-03-14T16:02:38.762Z,11.76
2024-03-14T16:05:09.907Z,11.74
2024-03-14T16:07:49.120Z,11.73
2024-03-14T16:10:16.348Z,11.73
2024-03-14T19:22:02.167Z,10.44
2024-03-14T19:24:28.707Z,10.40
2024-03-14T19:26:55.088Z,10.41
2024-03-14T19:29:23.908Z,10.36
2024-03-14T19:31:54.119Z,10.32
2024-03-14T19:34:22.014Z,10.24
2024-03-14T19:36:53.227Z,10.30
2024-03-14T19:39:20.662Z,10.34
2024-03-14T19:41:47.145Z,10.33
2024-03-14T19:44:13.601Z,10.31
2024-03-14T19:46:41.517Z,10.29
